Rossburn, Canada
Current Conditions -  °F | °C
As of 3:00 PM on Monday 24 Nov 2014 (Local Time) from CYDN Reporting Station
Overcast Overcast  
Wind Chill:   Ceiling: 4000
Heat Index: 14°   Visibility: 9mi
Dew Point:   Wind: 10mph
Humidity: 67%   Direction: 280°W
Pressure: 29.91"   Gusts: NA
Location:  50.67°N, 100.82°W
Report Text: CYDN 242100Z AUTO 28009KT 9SM OVC040 M10/M15 A2991 RMK SLP158
Loading
Personal Weather Stations






























Interactive Weather Map New forecast layout! Learn more

10-Day Weather Forecast

Advertisements
Track Severe Weather on mobile